createdAt,value
2023-05-20T00:02:24.958Z,16.27
2023-05-20T00:04:53.041Z,13.97
2023-05-20T00:07:20.773Z,18.20
2023-05-20T00:09:48.651Z,16.17
2023-05-20T00:12:16.367Z,16.63
2023-05-20T00:14:44.184Z,17.25
2023-05-20T00:17:11.872Z,21.37
2023-05-20T00:19:39.659Z,18.08
2023-05-20T00:22:07.495Z,15.82
2023-05-20T00:24:35.264Z,17.63
2023-05-20T00:27:03.808Z,20.60
2023-05-20T00:29:31.711Z,16.20
2023-05-20T00:31:59.313Z,20.05
2023-05-20T00:34:27.233Z,17.65
2023-05-20T00:36:54.781Z,16.75
2023-05-20T00:39:22.657Z,14.77
2023-05-20T00:41:50.510Z,15.47
2023-05-20T00:44:19.166Z,14.23
2023-05-20T00:46:48.439Z,14.38
2023-05-20T00:49:16.529Z,16.33
2023-05-20T00:51:44.233Z,16.80
2023-05-20T00:54:12.573Z,15.43
2023-05-20T00:56:41.498Z,15.45
2023-05-20T00:59:09.914Z,17.67
2023-05-20T01:01:37.793Z,16.10
2023-05-20T01:04:06.100Z,16.33
2023-05-20T01:06:34.090Z,14.40
2023-05-20T01:09:02.481Z,16.27
2023-05-20T01:11:40.275Z,15.45
2023-05-20T01:14:12.140Z,16.23
2023-05-20T01:16:39.983Z,17.00
2023-05-20T01:19:17.586Z,20.80
2023-05-20T01:21:47.333Z,18.60
2023-05-20T01:24:15.244Z,22.35
2023-05-20T01:26:42.932Z,15.23
2023-05-20T01:29:14.241Z,19.17
2023-05-20T01:31:42.109Z,18.70
2023-05-20T01:34:13.104Z,19.65
2023-05-20T01:36:41.668Z,19.35
2023-05-20T01:39:09.868Z,18.30
2023-05-20T01:41:38.374Z,17.33
2023-05-20T01:44:06.313Z,20.97
2023-05-20T01:46:35.108Z,19.02
2023-05-20T01:49:03.410Z,18.33
2023-05-20T01:51:33.884Z,18.60
2023-05-20T01:54:01.908Z,17.02
2023-05-20T01:56:29.607Z,16.63
2023-05-20T01:58:57.441Z,17.88
2023-05-20T02:01:25.221Z,17.70
2023-05-20T02:03:53.011Z,15.90
2023-05-20T02:06:20.701Z,15.68
2023-05-20T02:08:48.861Z,16.90
2023-05-20T02:11:16.522Z,18.77
2023-05-20T02:13:44.317Z,18.00
2023-05-20T02:16:12.298Z,18.05
2023-05-20T02:18:40.204Z,18.08
2023-05-20T02:21:07.751Z,18.83
2023-05-20T02:23:35.743Z,19.45
2023-05-20T02:26:03.719Z,17.85
2023-05-20T02:28:31.812Z,18.25
2023-05-20T02:30:59.547Z,16.55
2023-05-20T02:33:29.405Z,18.20
2023-05-20T02:35:57.018Z,17.15
2023-05-20T02:38:25.154Z,18.38
2023-05-20T02:40:52.696Z,21.33
2023-05-20T02:43:20.433Z,18.45
2023-05-20T02:45:48.155Z,19.90
2023-05-20T02:48:16.671Z,15.70
2023-05-20T02:50:47.579Z,16.90
2023-05-20T02:53:17.150Z,21.13
2023-05-20T02:55:47.723Z,17.00
2023-05-20T02:58:15.779Z,21.43
2023-05-20T03:00:44.279Z,22.00
2023-05-20T03:03:13.966Z,18.70
2023-05-20T03:05:42.894Z,17.48
2023-05-20T03:08:11.484Z,15.27
2023-05-20T03:10:39.861Z,23.67
2023-05-20T03:13:11.617Z,18.92
2023-05-20T03:15:39.776Z,28.48
2023-05-20T03:18:08.873Z,24.52
2023-05-20T03:20:38.620Z,27.10
2023-05-20T03:23:08.249Z,19.47
2023-05-20T03:25:39.465Z,26.08
2023-05-20T03:28:07.402Z,20.02
2023-05-20T03:30:37.448Z,26.80
2023-05-20T03:33:06.314Z,18.40
2023-05-20T03:35:34.161Z,15.90
2023-05-20T03:38:02.257Z,16.25
2023-05-20T03:40:30.784Z,16.63
2023-05-20T03:42:58.680Z,20.00
2023-05-20T03:45:26.554Z,17.70
2023-05-20T03:48:01.129Z,19.30
2023-05-20T03:50:31.476Z,23.67
2023-05-20T03:52:59.382Z,21.98
2023-05-20T03:55:28.278Z,23.25
2023-05-20T03:57:56.492Z,23.75
2023-05-20T04:00:24.448Z,24.97
2023-05-20T04:02:52.376Z,22.85
2023-05-20T04:05:20.193Z,27.13
2023-05-20T04:07:49.371Z,18.00
2023-05-20T04:10:21.910Z,15.80
2023-05-20T04:12:54.191Z,17.77
2023-05-20T04:15:24.246Z,18.55
2023-05-20T04:17:58.156Z,18.45
2023-05-20T04:20:26.122Z,21.25
2023-05-20T04:22:56.664Z,19.08
2023-05-20T04:25:24.391Z,17.93
2023-05-20T04:27:54.552Z,18.50
2023-05-20T04:30:22.422Z,17.90
2023-05-20T04:32:51.329Z,18.98
2023-05-20T04:35:19.229Z,19.58
2023-05-20T04:37:49.362Z,17.37
2023-05-20T04:40:17.468Z,15.90
2023-05-20T04:42:45.868Z,18.15
2023-05-20T04:45:13.991Z,19.85
2023-05-20T04:47:44.689Z,19.92
2023-05-20T04:50:13.812Z,22.57
2023-05-20T04:52:49.844Z,30.23
2023-05-20T04:55:17.612Z,21.02
2023-05-20T04:57:45.824Z,24.90
2023-05-20T05:00:13.997Z,21.20
2023-05-20T05:02:42.583Z,23.67
2023-05-20T05:05:10.516Z,22.17
2023-05-20T05:07:41.317Z,22.85
2023-05-20T05:10:09.408Z,21.67
2023-05-20T05:12:37.475Z,20.65
2023-05-20T05:15:05.789Z,18.47
2023-05-20T05:17:33.729Z,18.67
2023-05-20T05:20:01.845Z,16.73
2023-05-20T05:22:32.853Z,17.88
2023-05-20T05:25:02.767Z,17.65
2023-05-20T05:27:31.307Z,21.23
2023-05-20T05:29:59.148Z,17.10
2023-05-20T05:32:27.320Z,18.02
2023-05-20T05:34:55.192Z,15.15
2023-05-20T05:37:23.899Z,16.58
2023-05-20T05:39:51.637Z,17.30
2023-05-20T05:42:19.688Z,17.67
2023-05-20T05:44:47.936Z,18.50
2023-05-20T05:47:17.418Z,20.77
2023-05-20T05:49:45.174Z,18.13
2023-05-20T05:52:13.433Z,17.63
2023-05-20T05:54:42.300Z,19.35
2023-05-20T05:57:12.423Z,18.95
2023-05-20T05:59:40.737Z,21.23
2023-05-20T06:02:11.226Z,16.85
2023-05-20T06:04:39.178Z,16.33
2023-05-20T06:07:07.189Z,17.02
2023-05-20T06:09:34.977Z,18.58
2023-05-20T06:12:03.720Z,17.33
2023-05-20T06:14:33.011Z,22.98
2023-05-20T06:17:01.292Z,20.17
2023-05-20T06:19:29.053Z,30.10
2023-05-20T06:21:58.586Z,29.25
2023-05-20T06:24:27.355Z,28.27
2023-05-20T06:26:57.820Z,29.50
2023-05-20T06:29:25.512Z,27.57
2023-05-20T06:31:53.485Z,34.03
2023-05-20T06:34:21.121Z,39.85
2023-05-20T06:36:49.019Z,32.03
2023-05-20T06:39:17.734Z,35.58
2023-05-20T06:41:55.506Z,36.63
2023-05-20T06:44:28.895Z,37.78
2023-05-20T06:47:01.890Z,38.83
2023-05-20T06:49:31.183Z,36.33
2023-05-20T06:51:58.979Z,34.92
2023-05-20T06:54:26.529Z,31.93
2023-05-20T06:56:55.322Z,30.08
2023-05-20T06:59:24.018Z,22.60
2023-05-20T07:01:51.867Z,20.98
2023-05-20T07:04:19.879Z,21.83
2023-05-20T07:06:48.066Z,20.20
2023-05-20T07:09:15.740Z,23.17
2023-05-20T07:11:44.020Z,19.55
2023-05-20T07:14:14.111Z,21.55
2023-05-20T07:16:42.790Z,18.67
2023-05-20T07:19:11.036Z,19.93
2023-05-20T07:21:39.174Z,19.45
2023-05-20T07:24:26.273Z,18.48
2023-05-20T07:26:54.174Z,19.75
2023-05-20T07:29:21.945Z,16.40
2023-05-20T07:31:49.975Z,19.53
2023-05-20T07:34:17.911Z,16.98
2023-05-20T07:36:46.956Z,17.35
2023-05-20T07:39:16.168Z,18.13
2023-05-20T07:41:45.385Z,15.05
2023-05-20T07:44:14.127Z,21.13
2023-05-20T07:46:52.454Z,18.83
2023-05-20T07:49:37.613Z,16.63
2023-05-20T07:52:14.735Z,16.88
2023-05-20T07:54:43.826Z,14.65
2023-05-20T07:57:14.205Z,17.37
2023-05-20T07:59:42.409Z,14.95
2023-05-20T08:02:10.868Z,15.40
2023-05-20T08:04:39.416Z,19.27
2023-05-20T08:07:07.372Z,14.27
2023-05-20T08:09:52.533Z,15.77
2023-05-20T08:12:21.580Z,15.10
2023-05-20T08:14:49.509Z,12.85
2023-05-20T08:17:17.630Z,14.55
2023-05-20T08:19:50.902Z,15.82
2023-05-20T08:22:20.571Z,15.47
2023-05-20T08:24:48.659Z,14.25
2023-05-20T08:27:17.241Z,16.90
2023-05-20T08:29:47.901Z,13.88
2023-05-20T08:32:16.231Z,13.98
2023-05-20T08:34:45.871Z,14.13
2023-05-20T08:37:14.251Z,12.40
2023-05-20T08:39:42.112Z,13.00
2023-05-20T08:42:12.032Z,13.25
2023-05-20T08:44:42.479Z,17.73
2023-05-20T08:47:11.656Z,16.57
2023-05-20T08:49:41.711Z,13.30
2023-05-20T08:52:11.944Z,12.25
2023-05-20T08:54:49.057Z,12.95
2023-05-20T08:57:18.272Z,12.63
2023-05-20T08:59:47.385Z,16.33
2023-05-20T09:02:16.168Z,13.30
2023-05-20T09:04:43.893Z,17.60
2023-05-20T09:07:12.009Z,13.02
2023-05-20T09:09:39.862Z,11.50
2023-05-20T09:12:08.218Z,14.80
2023-05-20T09:14:43.209Z,20.98
2023-05-20T09:17:14.531Z,14.05
2023-05-20T09:19:42.485Z,11.95
2023-05-20T09:22:10.459Z,10.02
2023-05-20T09:24:38.188Z,11.47
2023-05-20T09:27:10.730Z,13.13
2023-05-20T09:29:38.506Z,11.32
2023-05-20T09:32:07.821Z,16.42
2023-05-20T09:34:35.866Z,12.95
2023-05-20T09:37:03.932Z,11.47
2023-05-20T09:39:37.659Z,11.70
2023-05-20T09:42:15.979Z,15.18
2023-05-20T09:44:45.516Z,14.25
2023-05-20T09:47:14.439Z,12.43
2023-05-20T09:49:43.128Z,11.23
2023-05-20T09:52:13.641Z,19.17
2023-05-20T09:54:42.563Z,13.13
2023-05-20T09:57:10.672Z,10.05
2023-05-20T09:59:47.816Z,12.60
2023-05-20T10:02:17.716Z,13.73
2023-05-20T10:04:50.453Z,17.33
2023-05-20T10:07:40.663Z,9.95
2023-05-20T10:10:49.049Z,16.30
2023-05-20T10:13:36.049Z,11.40
2023-05-20T10:16:12.865Z,11.93
2023-05-20T10:19:02.011Z,20.30
2023-05-20T10:21:29.707Z,10.90
2023-05-20T10:24:07.982Z,13.63
2023-05-20T10:26:40.170Z,11.13
2023-05-20T10:29:18.517Z,11.77
2023-05-20T10:31:56.193Z,11.68
2023-05-20T10:34:24.304Z,10.95
2023-05-20T10:36:54.545Z,13.43
2023-05-20T10:39:35.825Z,9.65
2023-05-20T10:42:10.549Z,9.87
2023-05-20T10:44:48.299Z,13.63
2023-05-20T10:47:25.599Z,10.40
2023-05-20T10:49:54.750Z,12.63
2023-05-20T10:52:22.456Z,11.27
2023-05-20T10:55:01.442Z,12.67
2023-05-20T10:57:29.954Z,11.15
2023-05-20T10:59:58.265Z,10.45
2023-05-20T11:02:28.994Z,9.93
2023-05-20T11:05:00.292Z,9.75
2023-05-20T11:07:29.607Z,10.30
2023-05-20T11:09:58.597Z,13.45
2023-05-20T11:12:27.587Z,12.75
2023-05-20T11:14:59.489Z,12.50
2023-05-20T11:17:27.158Z,12.73
2023-05-20T11:20:01.294Z,10.33
2023-05-20T11:22:28.955Z,10.43
2023-05-20T11:24:56.914Z,9.65
2023-05-20T11:27:24.625Z,11.77
2023-05-20T11:29:53.372Z,11.73
2023-05-20T11:32:22.057Z,12.47
2023-05-20T11:34:53.427Z,10.45
2023-05-20T11:41:05.687Z,8.77
2023-05-20T11:43:34.637Z,9.85
2023-05-20T11:46:02.852Z,11.50
2023-05-20T11:48:34.292Z,15.13
2023-05-20T11:51:03.347Z,17.33
2023-05-20T11:53:31.004Z,8.60
2023-05-20T11:56:02.735Z,14.27
2023-05-20T11:58:31.812Z,10.70
2023-05-20T12:01:13.239Z,7.43
2023-05-20T12:04:16.593Z,6.85
2023-05-20T12:06:45.667Z,7.75
2023-05-20T12:09:14.528Z,9.23
2023-05-20T12:11:42.777Z,11.43
2023-05-20T12:14:50.537Z,7.90
2023-05-20T12:20:07.939Z,9.32
2023-05-20T12:22:36.430Z,9.27
2023-05-20T12:25:04.537Z,10.27
2023-05-20T12:27:34.196Z,11.45
2023-05-20T12:30:01.873Z,12.80
2023-05-20T12:32:29.977Z,6.78
2023-05-20T12:34:57.639Z,5.78
2023-05-20T12:37:25.703Z,6.37
2023-05-20T12:39:53.362Z,8.98
2023-05-20T12:42:21.620Z,11.55
2023-05-20T12:44:49.272Z,10.95
2023-05-20T12:47:17.504Z,11.90
2023-05-20T12:49:45.249Z,9.17
2023-05-20T12:52:21.959Z,11.68
2023-05-20T12:54:50.814Z,10.15
2023-05-20T12:57:19.498Z,11.25
2023-05-20T12:59:47.182Z,9.25
2023-05-20T13:02:15.012Z,9.17
2023-05-20T13:04:42.865Z,9.05
2023-05-20T13:07:10.759Z,8.90
2023-05-20T13:09:38.363Z,11.27
2023-05-20T13:12:06.967Z,10.13
2023-05-20T13:14:34.619Z,9.83
2023-05-20T13:17:02.723Z,11.75
2023-05-20T13:19:30.550Z,8.27
2023-05-20T13:21:58.495Z,9.00
2023-05-20T13:24:26.301Z,9.02
2023-05-20T13:26:54.376Z,11.67
2023-05-20T13:29:22.467Z,9.95
2023-05-20T13:31:50.530Z,10.27
2023-05-20T13:34:19.020Z,10.63
2023-05-20T13:36:48.192Z,8.52
2023-05-20T13:39:16.995Z,10.10
2023-05-20T13:41:44.950Z,7.63
2023-05-20T13:44:12.533Z,7.82
2023-05-20T13:46:40.389Z,8.63
2023-05-20T13:49:10.439Z,7.85
2023-05-20T13:51:38.473Z,7.07
2023-05-20T13:54:06.899Z,10.80
2023-05-20T13:56:35.054Z,8.57
2023-05-20T13:59:02.680Z,7.72
2023-05-20T14:01:34.075Z,6.97
2023-05-20T14:04:02.081Z,7.13
2023-05-20T14:06:32.254Z,9.05
2023-05-20T14:09:00.581Z,10.05
2023-05-20T14:11:31.530Z,10.77
2023-05-20T14:14:01.558Z,8.77
2023-05-20T14:16:29.595Z,7.83
2023-05-20T14:19:08.936Z,7.38
2023-05-20T14:21:42.441Z,7.20
2023-05-20T14:24:10.144Z,7.50
2023-05-20T14:26:38.172Z,7.53
2023-05-20T14:29:33.437Z,8.07
2023-05-20T14:32:29.188Z,7.82
2023-05-20T14:35:02.653Z,8.70
2023-05-20T14:37:31.291Z,7.97
2023-05-20T14:40:02.609Z,7.75
2023-05-20T14:42:30.571Z,6.83
2023-05-20T14:44:58.191Z,9.25
2023-05-20T14:47:28.728Z,5.72
2023-05-20T14:49:59.364Z,12.30
2023-05-20T14:52:32.339Z,7.07
2023-05-20T14:55:00.188Z,7.00
2023-05-20T14:57:28.053Z,6.78
2023-05-20T14:59:56.164Z,8.32
2023-05-20T15:02:24.093Z,6.28
2023-05-20T15:04:51.783Z,12.73
2023-05-20T15:07:19.804Z,9.97
2023-05-20T15:09:51.438Z,5.78
2023-05-20T15:12:22.798Z,7.28
2023-05-20T15:14:50.423Z,7.55
2023-05-20T15:17:18.356Z,7.82
2023-05-20T15:19:46.173Z,8.10
2023-05-20T15:22:14.110Z,10.25
2023-05-20T15:24:42.881Z,8.27
2023-05-20T15:27:11.022Z,11.18
2023-05-20T15:29:40.168Z,10.70
2023-05-20T15:32:09.158Z,8.73
2023-05-20T15:34:36.775Z,7.60
2023-05-20T15:37:04.861Z,8.68
2023-05-20T15:39:46.771Z,8.95
2023-05-20T15:42:18.851Z,9.00
2023-05-20T15:44:46.762Z,8.93
2023-05-20T15:47:14.863Z,8.40
2023-05-20T15:49:43.039Z,9.23
2023-05-20T15:52:11.057Z,8.32
2023-05-20T15:54:38.912Z,12.52
2023-05-20T15:57:06.905Z,12.07
2023-05-20T15:59:34.568Z,12.02
2023-05-20T16:02:02.637Z,8.77
2023-05-20T16:04:30.560Z,9.15
2023-05-20T16:06:58.625Z,9.20
2023-05-20T16:09:26.445Z,11.40
2023-05-20T16:11:54.517Z,10.73
2023-05-20T16:14:22.237Z,8.82
2023-05-20T16:16:50.404Z,9.32
2023-05-20T16:19:18.291Z,8.50
2023-05-20T16:21:46.392Z,10.07
2023-05-20T16:24:16.440Z,8.32
2023-05-20T16:26:45.321Z,9.70
2023-05-20T16:29:16.608Z,10.32
2023-05-20T16:31:47.223Z,11.13
2023-05-20T16:34:16.258Z,10.30
2023-05-20T16:36:46.005Z,8.32
2023-05-20T16:39:14.799Z,9.18
2023-05-20T16:41:43.520Z,10.13
2023-05-20T16:44:11.382Z,11.60
2023-05-20T16:46:39.365Z,11.17
2023-05-20T16:49:07.074Z,7.70
2023-05-20T16:51:35.106Z,8.95
2023-05-20T16:54:02.864Z,9.15
2023-05-20T16:56:30.974Z,8.63
2023-05-20T16:58:58.706Z,8.57
2023-05-20T17:01:26.957Z,11.68
2023-05-20T17:03:55.049Z,10.75
2023-05-20T17:06:33.245Z,10.30
2023-05-20T17:09:05.436Z,9.40
2023-05-20T17:11:34.412Z,9.90
2023-05-20T17:14:03.573Z,20.90
2023-05-20T17:16:46.205Z,11.68
2023-05-20T17:19:14.118Z,14.02
2023-05-20T17:21:42.342Z,9.55
2023-05-20T17:24:20.156Z,14.33
2023-05-20T17:26:48.547Z,9.82
2023-05-20T17:29:16.437Z,13.55
2023-05-20T17:31:49.868Z,8.52
2023-05-20T17:34:18.660Z,9.20
2023-05-20T17:36:49.615Z,9.37
2023-05-20T17:39:17.346Z,9.50
2023-05-20T17:41:45.611Z,7.68
2023-05-20T17:44:13.417Z,8.73
2023-05-20T17:46:41.716Z,8.85
2023-05-20T17:49:11.478Z,8.40
2023-05-20T17:51:42.648Z,7.97
2023-05-20T17:54:17.461Z,8.82
2023-05-20T17:56:51.665Z,8.90
2023-05-20T17:59:19.242Z,8.75
2023-05-20T18:01:47.440Z,8.63
2023-05-20T18:04:15.398Z,12.60
2023-05-20T18:06:43.451Z,12.05
2023-05-20T18:09:11.096Z,13.70
2023-05-20T18:11:40.989Z,13.05
2023-05-20T18:14:14.674Z,12.07
2023-05-20T18:16:42.878Z,11.48
2023-05-20T18:19:10.415Z,19.15
2023-05-20T18:21:38.488Z,13.25
2023-05-20T18:24:06.479Z,10.18
2023-05-20T18:26:34.569Z,12.77
2023-05-20T18:29:02.219Z,11.93
2023-05-20T18:31:30.473Z,11.02
2023-05-20T18:33:58.204Z,13.02
2023-05-20T18:36:27.821Z,10.70
2023-05-20T18:38:55.897Z,12.87
2023-05-20T18:41:27.222Z,12.70
2023-05-20T18:44:05.666Z,15.05
2023-05-20T18:46:33.971Z,11.73
2023-05-20T18:49:01.612Z,11.00
2023-05-20T18:51:33.543Z,14.17
2023-05-20T18:54:01.433Z,11.05
2023-05-20T18:56:29.981Z,10.15
2023-05-20T18:58:57.817Z,10.43
2023-05-20T19:01:26.200Z,9.98
2023-05-20T19:03:53.986Z,9.33
2023-05-20T19:06:22.444Z,19.75
2023-05-20T19:08:50.442Z,10.82
2023-05-20T19:11:18.378Z,10.80
2023-05-20T19:13:46.321Z,12.07
2023-05-20T19:16:14.248Z,10.07
2023-05-20T19:18:41.980Z,9.75
2023-05-20T19:21:09.963Z,12.45
2023-05-20T19:23:38.047Z,12.57
2023-05-20T19:26:06.130Z,10.52
2023-05-20T19:28:33.773Z,10.57
2023-05-20T19:31:01.792Z,14.30
2023-05-20T19:33:29.582Z,15.27
2023-05-20T19:35:58.312Z,11.77
2023-05-20T19:38:26.686Z,14.52
2023-05-20T19:40:54.890Z,14.50
2023-05-20T19:43:23.748Z,15.00
2023-05-20T19:45:51.766Z,17.30
2023-05-20T19:48:22.237Z,22.08
2023-05-20T19:50:51.103Z,17.02
2023-05-20T19:53:20.330Z,15.03
2023-05-20T19:55:48.564Z,12.48
2023-05-20T19:58:16.399Z,13.30
2023-05-20T20:00:44.777Z,14.70
2023-05-20T20:03:12.650Z,18.30
2023-05-20T20:05:40.833Z,15.67
2023-05-20T20:08:08.320Z,12.80
2023-05-20T20:10:37.855Z,33.58
2023-05-20T20:13:06.464Z,73.82
2023-05-20T20:15:34.697Z,26.92
2023-05-20T20:18:03.400Z,16.20
2023-05-20T20:20:38.081Z,16.73
2023-05-20T20:23:08.186Z,13.65
2023-05-20T20:25:42.971Z,13.45
2023-05-20T20:28:11.628Z,12.93
2023-05-20T20:30:39.596Z,11.73
2023-05-20T20:33:09.577Z,14.50
2023-05-20T20:35:38.428Z,11.05
2023-05-20T20:38:10.217Z,13.20
2023-05-20T20:40:39.892Z,11.80
2023-05-20T20:43:08.551Z,12.03
2023-05-20T20:45:39.321Z,12.68
2023-05-20T20:48:08.377Z,13.93
2023-05-20T20:50:36.918Z,11.57
2023-05-20T20:53:04.632Z,12.40
2023-05-20T20:55:32.668Z,14.17
2023-05-20T20:58:03.112Z,14.60
2023-05-20T21:00:31.230Z,12.68
2023-05-20T21:02:58.929Z,10.93
2023-05-20T21:05:26.858Z,11.98
2023-05-20T21:07:59.964Z,16.60
2023-05-20T21:10:29.547Z,10.88
2023-05-20T21:12:58.357Z,13.48
2023-05-20T21:15:27.780Z,12.63
2023-05-20T21:17:56.499Z,12.93
2023-05-20T21:20:24.695Z,10.93
2023-05-20T21:22:52.344Z,15.63
2023-05-20T21:25:20.460Z,11.00
2023-05-20T21:27:48.101Z,12.63
2023-05-20T21:30:17.585Z,13.65
2023-05-20T21:32:45.222Z,10.13
2023-05-20T21:35:13.703Z,15.05
2023-05-20T21:37:41.399Z,14.35
2023-05-20T21:40:09.791Z,34.03
2023-05-20T21:42:37.348Z,19.67
2023-05-20T21:45:06.461Z,11.27
2023-05-20T21:47:34.038Z,12.05
2023-05-20T21:50:03.137Z,14.27
2023-05-20T21:52:30.915Z,11.95
2023-05-20T21:54:59.057Z,11.77
2023-05-20T21:57:26.903Z,12.67
2023-05-20T21:59:54.874Z,12.18
2023-05-20T22:02:23.244Z,13.27
2023-05-20T22:04:51.290Z,16.58
2023-05-20T22:07:19.042Z,11.68
2023-05-20T22:09:47.134Z,13.77
2023-05-20T22:12:15.763Z,12.02
2023-05-20T22:14:43.771Z,11.07
2023-05-20T22:17:11.313Z,14.88
2023-05-20T22:19:40.493Z,11.60
2023-05-20T22:22:08.131Z,14.90
2023-05-20T22:24:36.132Z,14.70
2023-05-20T22:27:04.298Z,14.23
2023-05-20T22:29:32.743Z,13.45
2023-05-20T22:32:00.601Z,18.10
2023-05-20T22:34:28.630Z,12.57
2023-05-20T22:36:56.240Z,13.60
2023-05-20T22:39:24.169Z,14.02
2023-05-20T22:41:51.633Z,18.42
2023-05-20T22:44:19.631Z,15.50
2023-05-20T22:46:47.404Z,15.07
2023-05-20T22:49:15.877Z,12.57
2023-05-20T22:51:43.567Z,14.35
2023-05-20T22:54:11.871Z,15.98
2023-05-20T22:56:39.355Z,17.33
2023-05-20T22:59:07.398Z,13.77
2023-05-20T23:01:35.202Z,13.20
2023-05-20T23:04:03.385Z,15.75
2023-05-20T23:06:31.055Z,21.88
2023-05-20T23:08:59.028Z,24.52
2023-05-20T23:11:27.441Z,24.53
2023-05-20T23:13:55.354Z,28.83
2023-05-20T23:16:22.853Z,20.30
2023-05-20T23:18:50.941Z,18.27
2023-05-20T23:21:19.704Z,16.02
2023-05-20T23:23:47.753Z,16.27
2023-05-20T23:26:15.226Z,16.80
2023-05-20T23:28:43.168Z,18.42
2023-05-20T23:31:11.127Z,18.45
2023-05-20T23:33:38.987Z,13.93
2023-05-20T23:36:09.665Z,14.40
2023-05-20T23:38:37.798Z,12.35
2023-05-20T23:41:05.603Z,15.85
2023-05-20T23:43:33.383Z,15.48
2023-05-20T23:46:01.232Z,12.23
2023-05-20T23:48:29.177Z,14.60
2023-05-20T23:50:56.720Z,13.52
2023-05-20T23:53:25.906Z,11.75
2023-05-20T23:55:53.282Z,12.27
2023-05-20T23:58:21.942Z,11.50
